sensor_id;sensor_type;location;lat;lon;timestamp;pressure;altitude;pressure_sealevel;temperature;humidity
21109;BME280;10712;52.944;9.098;2022-09-09T00:04:12;100705.81;;;23.16;57.33
21109;BME280;10712;52.944;9.098;2022-09-09T00:09:38;100709.69;;;23.13;57.62
21109;BME280;10712;52.944;9.098;2022-09-09T00:12:15;100707.84;;;23.14;57.49
21109;BME280;10712;52.944;9.098;2022-09-09T00:15:01;100717.50;;;23.16;57.42
21109;BME280;10712;52.944;9.098;2022-09-09T00:17:56;100714.97;;;23.15;57.78
21109;BME280;10712;52.944;9.098;2022-09-09T00:20:35;100720.41;;;23.15;57.43
21109;BME280;10712;52.944;9.098;2022-09-09T00:23:19;100713.28;;;23.14;57.48
21109;BME280;10712;52.944;9.098;2022-09-09T00:26:04;100715.81;;;23.15;57.56
21109;BME280;10712;52.944;9.098;2022-09-09T00:31:32;100714.97;;;23.15;57.69
21109;BME280;10712;52.944;9.098;2022-09-09T00:36:59;100708.69;;;23.14;57.71
21109;BME280;10712;52.944;9.098;2022-09-09T00:39:42;100700.88;;;23.11;57.86
21109;BME280;10712;52.944;9.098;2022-09-09T00:42:41;100699.34;;;23.09;58.07
21109;BME280;10712;52.944;9.098;2022-09-09T00:48:00;100708.38;;;23.09;57.92
21109;BME280;10712;52.944;9.098;2022-09-09T00:56:14;100704.09;;;22.99;57.83
21109;BME280;10712;52.944;9.098;2022-09-09T00:58:49;100705.81;;;23.00;57.38
21109;BME280;10712;52.944;9.098;2022-09-09T01:01:17;100702.56;;;22.96;57.63
21109;BME280;10712;52.944;9.098;2022-09-09T01:03:54;100701.91;;;22.94;57.47
21109;BME280;10712;52.944;9.098;2022-09-09T01:06:36;100696.81;;;22.91;57.32
21109;BME280;10712;52.944;9.098;2022-09-09T01:09:30;100703.44;;;22.89;57.70
21109;BME280;10712;52.944;9.098;2022-09-09T01:12:17;100707.19;;;22.88;57.28
21109;BME280;10712;52.944;9.098;2022-09-09T01:15:12;100705.78;;;22.84;57.39
21109;BME280;10712;52.944;9.098;2022-09-09T01:18:03;100706.16;;;22.81;57.45
21109;BME280;10712;52.944;9.098;2022-09-09T01:21:14;100699.00;;;22.80;57.30
21109;BME280;10712;52.944;9.098;2022-09-09T01:27:14;100706.63;;;22.76;57.28
21109;BME280;10712;52.944;9.098;2022-09-09T01:29:43;100704.13;;;22.74;57.05
21109;BME280;10712;52.944;9.098;2022-09-09T01:32:45;100703.72;;;22.69;57.08
21109;BME280;10712;52.944;9.098;2022-09-09T01:36:04;100699.50;;;22.67;57.32
21109;BME280;10712;52.944;9.098;2022-09-09T01:38:40;100700.00;;;22.70;57.41
21109;BME280;10712;52.944;9.098;2022-09-09T01:41:06;100692.19;;;22.67;57.29
21109;BME280;10712;52.944;9.098;2022-09-09T01:43:42;100692.34;;;22.66;57.25
21109;BME280;10712;52.944;9.098;2022-09-09T01:46:09;100689.81;;;22.64;57.18
21109;BME280;10712;52.944;9.098;2022-09-09T01:48:36;100688.09;;;22.63;57.30
21109;BME280;10712;52.944;9.098;2022-09-09T01:51:08;100692.84;;;22.61;57.12
21109;BME280;10712;52.944;9.098;2022-09-09T01:53:34;100692.50;;;22.56;57.33
21109;BME280;10712;52.944;9.098;2022-09-09T02:02:19;100677.25;;;22.47;56.79
21109;BME280;10712;52.944;9.098;2022-09-09T02:05:38;100684.69;;;22.45;56.88
21109;BME280;10712;52.944;9.098;2022-09-09T02:08:38;100693.16;;;22.42;56.66
21109;BME280;10712;52.944;9.098;2022-09-09T02:11:16;100683.00;;;22.44;56.58
21109;BME280;10712;52.944;9.098;2022-09-09T02:14:23;100684.34;;;22.40;56.80
21109;BME280;10712;52.944;9.098;2022-09-09T02:17:14;100684.69;;;22.37;56.18
21109;BME280;10712;52.944;9.098;2022-09-09T02:20:10;100686.69;;;22.35;56.69
21109;BME280;10712;52.944;9.098;2022-09-09T02:22:53;100678.75;;;22.33;56.69
21109;BME280;10712;52.944;9.098;2022-09-09T02:25:26;100683.66;;;22.30;56.33
21109;BME280;10712;52.944;9.098;2022-09-09T02:27:57;100685.00;;;22.26;56.60
21109;BME280;10712;52.944;9.098;2022-09-09T02:30:30;100680.25;;;22.28;56.83
21109;BME280;10712;52.944;9.098;2022-09-09T02:33:01;100668.72;;;22.26;56.74
21109;BME280;10712;52.944;9.098;2022-09-09T02:35:42;100678.72;;;22.25;56.87
21109;BME280;10712;52.944;9.098;2022-09-09T02:38:13;100677.69;;;22.18;56.74
21109;BME280;10712;52.944;9.098;2022-09-09T02:40:45;100675.16;;;22.25;56.63
21109;BME280;10712;52.944;9.098;2022-09-09T02:43:11;100674.47;;;22.23;56.56
21109;BME280;10712;52.944;9.098;2022-09-09T02:45:57;100669.03;;;22.23;56.63
21109;BME280;10712;52.944;9.098;2022-09-09T02:48:44;100666.50;;;22.21;56.66
21109;BME280;10712;52.944;9.098;2022-09-09T02:54:29;100680.56;;;22.17;56.48
21109;BME280;10712;52.944;9.098;2022-09-09T02:57:17;100672.06;;;22.20;56.35
21109;BME280;10712;52.944;9.098;2022-09-09T02:59:48;100669.56;;;22.18;56.44
21109;BME280;10712;52.944;9.098;2022-09-09T03:02:15;100661.41;;;22.18;56.64
21109;BME280;10712;52.944;9.098;2022-09-09T03:04:45;100668.00;;;22.16;56.58
21109;BME280;10712;52.944;9.098;2022-09-09T03:07:17;100668.34;;;22.13;56.37
21109;BME280;10712;52.944;9.098;2022-09-09T03:09:44;100676.50;;;22.13;56.57
21109;BME280;10712;52.944;9.098;2022-09-09T03:12:10;100680.88;;;22.14;56.86
21109;BME280;10712;52.944;9.098;2022-09-09T03:14:38;100675.44;;;21.97;57.44
21109;BME280;10712;52.944;9.098;2022-09-09T03:17:05;100688.00;;;22.15;57.04
21109;BME280;10712;52.944;9.098;2022-09-09T03:19:36;100691.41;;;22.17;57.17
21109;BME280;10712;52.944;9.098;2022-09-09T03:22:03;100695.69;;;22.19;57.05
21109;BME280;10712;52.944;9.098;2022-09-09T03:24:31;100695.81;;;22.10;57.64
21109;BME280;10712;52.944;9.098;2022-09-09T03:26:57;100694.16;;;22.25;57.61
21109;BME280;10712;52.944;9.098;2022-09-09T03:29:23;100690.78;;;22.31;57.46
21109;BME280;10712;52.944;9.098;2022-09-09T03:31:52;100688.06;;;22.31;57.27
21109;BME280;10712;52.944;9.098;2022-09-09T03:34:19;100703.19;;;22.33;57.61
21109;BME280;10712;52.944;9.098;2022-09-09T03:36:45;100703.34;;;22.32;57.61
21109;BME280;10712;52.944;9.098;2022-09-09T03:39:11;100693.84;;;22.36;57.78
21109;BME280;10712;52.944;9.098;2022-09-09T03:41:40;100694.53;;;22.38;57.93
21109;BME280;10712;52.944;9.098;2022-09-09T03:44:06;100697.94;;;22.40;57.70
21109;BME280;10712;52.944;9.098;2022-09-09T03:46:37;100701.31;;;22.42;58.00
21109;BME280;10712;52.944;9.098;2022-09-09T03:49:03;100704.53;;;22.37;58.27
21109;BME280;10712;52.944;9.098;2022-09-09T03:51:31;100697.59;;;22.43;57.89
21109;BME280;10712;52.944;9.098;2022-09-09T03:53:57;100701.00;;;22.45;57.91
21109;BME280;10712;52.944;9.098;2022-09-09T03:56:26;100696.06;;;22.49;58.27
21109;BME280;10712;52.944;9.098;2022-09-09T03:58:52;100691.47;;;22.49;58.26
21109;BME280;10712;52.944;9.098;2022-09-09T04:01:18;100689.78;;;22.48;58.10
21109;BME280;10712;52.944;9.098;2022-09-09T04:03:44;100692.31;;;22.50;58.07
21109;BME280;10712;52.944;9.098;2022-09-09T04:06:13;100689.78;;;22.48;58.18
21109;BME280;10712;52.944;9.098;2022-09-09T04:08:40;100685.72;;;22.52;58.23
21109;BME280;10712;52.944;9.098;2022-09-09T04:11:08;100685.06;;;22.58;58.01
21109;BME280;10712;52.944;9.098;2022-09-09T04:13:36;100691.81;;;22.62;58.05
21109;BME280;10712;52.944;9.098;2022-09-09T04:16:10;100697.63;;;22.59;58.01
21109;BME280;10712;52.944;9.098;2022-09-09T04:18:37;100689.47;;;22.59;58.01
21109;BME280;10712;52.944;9.098;2022-09-09T04:21:03;100693.88;;;22.60;57.81
21109;BME280;10712;52.944;9.098;2022-09-09T04:23:32;100700.34;;;22.59;58.15
21109;BME280;10712;52.944;9.098;2022-09-09T04:26:01;100697.25;;;22.62;57.99
21109;BME280;10712;52.944;9.098;2022-09-09T04:28:31;100698.94;;;22.55;58.08
21109;BME280;10712;52.944;9.098;2022-09-09T04:31:09;100698.97;;;22.63;57.82
21109;BME280;10712;52.944;9.098;2022-09-09T04:33:38;100696.59;;;22.68;58.00
21109;BME280;10712;52.944;9.098;2022-09-09T04:36:05;100705.78;;;22.67;58.04
21109;BME280;10712;52.944;9.098;2022-09-09T04:38:31;100711.22;;;22.67;57.92
21109;BME280;10712;52.944;9.098;2022-09-09T04:40:57;100702.00;;;22.68;57.78
21109;BME280;10712;52.944;9.098;2022-09-09T04:43:24;100700.34;;;22.67;57.94
21109;BME280;10712;52.944;9.098;2022-09-09T04:45:53;100705.41;;;22.70;58.16
21109;BME280;10712;52.944;9.098;2022-09-09T04:48:22;100702.88;;;22.69;57.90
21109;BME280;10712;52.944;9.098;2022-09-09T04:51:14;100714.59;;;22.69;57.99
21109;BME280;10712;52.944;9.098;2022-09-09T04:53:41;100709.72;;;22.73;58.27
21109;BME280;10712;52.944;9.098;2022-09-09T04:56:15;100714.13;;;22.74;58.11
21109;BME280;10712;52.944;9.098;2022-09-09T04:58:47;100713.28;;;22.73;57.92
21109;BME280;10712;52.944;9.098;2022-09-09T05:01:20;100725.13;;;22.72;58.40
21109;BME280;10712;52.944;9.098;2022-09-09T05:03:51;100719.69;;;22.72;58.49
21109;BME280;10712;52.944;9.098;2022-09-09T05:06:22;100730.22;;;22.75;58.07
21109;BME280;10712;52.944;9.098;2022-09-09T05:08:52;100733.63;;;22.77;58.26
21109;BME280;10712;52.944;9.098;2022-09-09T05:11:29;100731.09;;;22.76;58.20
21109;BME280;10712;52.944;9.098;2022-09-09T05:14:21;100730.44;;;22.74;58.52
21109;BME280;10712;52.944;9.098;2022-09-09T05:16:47;100737.72;;;22.73;58.30
21109;BME280;10712;52.944;9.098;2022-09-09T05:19:13;100739.44;;;22.74;58.35
21109;BME280;10712;52.944;9.098;2022-09-09T05:21:46;100741.09;;;22.75;58.52
21109;BME280;10712;52.944;9.098;2022-09-09T05:24:13;100740.25;;;22.75;58.37
21109;BME280;10712;52.944;9.098;2022-09-09T05:26:40;100740.25;;;22.75;58.34
21109;BME280;10712;52.944;9.098;2022-09-09T05:29:07;100746.53;;;22.75;58.37
21109;BME280;10712;52.944;9.098;2022-09-09T05:31:33;100750.63;;;22.80;58.25
21109;BME280;10712;52.944;9.098;2022-09-09T05:34:03;100749.25;;;22.84;58.11
21109;BME280;10712;52.944;9.098;2022-09-09T05:36:29;100743.66;;;22.85;58.24
21109;BME280;10712;52.944;9.098;2022-09-09T05:38:56;100747.25;;;22.86;58.31
21109;BME280;10712;52.944;9.098;2022-09-09T05:41:24;100751.50;;;22.88;58.37
21109;BME280;10712;52.944;9.098;2022-09-09T05:43:52;100752.34;;;22.89;58.05
21109;BME280;10712;52.944;9.098;2022-09-09T05:46:24;100747.25;;;22.94;58.03
21109;BME280;10712;52.944;9.098;2022-09-09T05:48:53;100757.78;;;22.89;58.08
21109;BME280;10712;52.944;9.098;2022-09-09T05:51:26;100764.88;;;22.90;57.91
21109;BME280;10712;52.944;9.098;2022-09-09T05:53:56;100757.78;;;22.89;58.29
21109;BME280;10712;52.944;9.098;2022-09-09T05:56:29;100763.22;;;22.89;58.35
21109;BME280;10712;52.944;9.098;2022-09-09T05:58:56;100760.50;;;22.89;58.34
21109;BME280;10712;52.944;9.098;2022-09-09T06:01:30;100757.78;;;22.89;58.22
21109;BME280;10712;52.944;9.098;2022-09-09T06:03:57;100761.69;;;22.94;58.08
21109;BME280;10712;52.944;9.098;2022-09-09T06:06:45;100749.97;;;22.94;58.07
21109;BME280;10712;52.944;9.098;2022-09-09T06:09:15;100760.47;;;22.97;58.11
21109;BME280;10712;52.944;9.098;2022-09-09T06:11:42;100761.84;;;23.01;58.19
21109;BME280;10712;52.944;9.098;2022-09-09T06:14:09;100761.50;;;23.04;58.13
21109;BME280;10712;52.944;9.098;2022-09-09T06:16:36;100760.81;;;23.10;58.22
21109;BME280;10712;52.944;9.098;2022-09-09T06:19:05;100752.84;;;23.08;58.36
21109;BME280;10712;52.944;9.098;2022-09-09T06:21:37;100753.53;;;23.18;58.22
21109;BME280;10712;52.944;9.098;2022-09-09T06:24:05;100756.94;;;23.21;58.16
21109;BME280;10712;52.944;9.098;2022-09-09T06:26:37;100758.09;;;23.26;58.36
21109;BME280;10712;52.944;9.098;2022-09-09T06:29:04;100758.78;;;23.28;58.22
21109;BME280;10712;52.944;9.098;2022-09-09T06:31:33;100759.28;;;23.32;58.34
21109;BME280;10712;52.944;9.098;2022-09-09T06:34:12;100756.91;;;23.37;58.06
21109;BME280;10712;52.944;9.098;2022-09-09T06:36:41;100760.81;;;23.42;58.20
21109;BME280;10712;52.944;9.098;2022-09-09T06:39:08;100759.44;;;23.46;58.21
21109;BME280;10712;52.944;9.098;2022-09-09T06:41:37;100766.94;;;23.52;57.76
21109;BME280;10712;52.944;9.098;2022-09-09T06:44:06;100761.16;;;23.55;57.93
21109;BME280;10712;52.944;9.098;2022-09-09T06:46:39;100756.38;;;23.66;57.89
21109;BME280;10712;52.944;9.098;2022-09-09T06:49:06;100751.59;;;23.76;57.83
21109;BME280;10712;52.944;9.098;2022-09-09T06:51:37;100759.22;;;23.80;57.82
21109;BME280;10712;52.944;9.098;2022-09-09T06:54:11;100760.22;;;23.87;58.09
21109;BME280;10712;52.944;9.098;2022-09-09T06:56:41;100749.47;;;23.94;57.82
21109;BME280;10712;52.944;9.098;2022-09-09T06:59:12;100755.91;;;24.01;58.22
21109;BME280;10712;52.944;9.098;2022-09-09T07:01:42;100745.53;;;24.05;58.10
21109;BME280;10712;52.944;9.098;2022-09-09T07:04:13;100752.56;;;23.99;58.50
21109;BME280;10712;52.944;9.098;2022-09-09T07:06:45;100759.47;;;24.10;58.16
21109;BME280;10712;52.944;9.098;2022-09-09T07:09:16;100761.66;;;24.14;58.21
21109;BME280;10712;52.944;9.098;2022-09-09T07:11:51;100756.56;;;24.11;58.18
21109;BME280;10712;52.944;9.098;2022-09-09T07:14:22;100764.19;;;24.16;58.11
21109;BME280;10712;52.944;9.098;2022-09-09T07:16:53;100757.91;;;24.15;58.28
21109;BME280;10712;52.944;9.098;2022-09-09T07:19:19;100760.47;;;24.17;58.46
21109;BME280;10712;52.944;9.098;2022-09-09T07:21:48;100756.91;;;24.08;58.50
21109;BME280;10712;52.944;9.098;2022-09-09T07:24:17;100755.00;;;24.17;58.45
21109;BME280;10712;52.944;9.098;2022-09-09T07:26:43;100760.97;;;24.20;58.33
21109;BME280;10712;52.944;9.098;2022-09-09T07:29:10;100766.41;;;24.20;58.08
21109;BME280;10712;52.944;9.098;2022-09-09T07:31:41;100764.22;;;24.24;58.38
21109;BME280;10712;52.944;9.098;2022-09-09T07:34:11;100773.22;;;24.24;58.33
21109;BME280;10712;52.944;9.098;2022-09-09T07:36:39;100775.19;;;24.39;58.19
21109;BME280;10712;52.944;9.098;2022-09-09T07:39:13;100774.19;;;24.40;58.09
21109;BME280;10712;52.944;9.098;2022-09-09T07:41:46;100772.78;;;24.44;57.98
21109;BME280;10712;52.944;9.098;2022-09-09T07:44:16;100772.44;;;24.47;58.40
21109;BME280;10712;52.944;9.098;2022-09-09T07:46:45;100775.34;;;24.45;58.58
21109;BME280;10712;52.944;9.098;2022-09-09T07:49:15;100776.47;;;24.51;58.42
21109;BME280;10712;52.944;9.098;2022-09-09T07:51:44;100784.91;;;24.64;58.26
21109;BME280;10712;52.944;9.098;2022-09-09T07:54:16;100777.19;;;24.76;58.01
21109;BME280;10712;52.944;9.098;2022-09-09T07:56:44;100783.13;;;24.79;58.02
21109;BME280;10712;52.944;9.098;2022-09-09T07:59:11;100784.31;;;24.77;58.01
21109;BME280;10712;52.944;9.098;2022-09-09T08:01:47;100783.47;;;24.76;58.02
21109;BME280;10712;52.944;9.098;2022-09-09T08:04:19;100785.84;;;24.79;58.09
21109;BME280;10712;52.944;9.098;2022-09-09T08:06:50;100779.38;;;24.80;58.13
21109;BME280;10712;52.944;9.098;2022-09-09T08:09:20;100779.31;;;24.88;58.07
21109;BME280;10712;52.944;9.098;2022-09-09T08:11:48;100785.81;;;24.87;57.98
21109;BME280;10712;52.944;9.098;2022-09-09T08:14:15;100782.22;;;24.95;57.93
21109;BME280;10712;52.944;9.098;2022-09-09T08:16:45;100786.31;;;24.91;57.82
21109;BME280;10712;52.944;9.098;2022-09-09T08:19:14;100788.13;;;24.98;57.76
21109;BME280;10712;52.944;9.098;2022-09-09T08:21:45;100785.09;;;24.93;58.01
21109;BME280;10712;52.944;9.098;2022-09-09T08:24:13;100787.44;;;24.96;58.07
21109;BME280;10712;52.944;9.098;2022-09-09T08:26:48;100786.94;;;25.01;57.89
21109;BME280;10712;52.944;9.098;2022-09-09T08:29:17;100786.38;;;25.05;57.88
21109;BME280;10712;52.944;9.098;2022-09-09T08:31:48;100791.16;;;25.03;57.73
21109;BME280;10712;52.944;9.098;2022-09-09T08:34:16;100780.97;;;24.97;58.20
21109;BME280;10712;52.944;9.098;2022-09-09T08:36:45;100784.44;;;25.14;58.02
21109;BME280;10712;52.944;9.098;2022-09-09T08:39:16;100792.56;;;25.22;57.69
21109;BME280;10712;52.944;9.098;2022-09-09T08:47:38;100799.66;;;25.46;57.41
21109;BME280;10712;52.944;9.098;2022-09-09T08:50:22;100798.88;;;25.60;57.23
21109;BME280;10712;52.944;9.098;2022-09-09T08:55:52;100793.16;;;25.70;57.36
21109;BME280;10712;52.944;9.098;2022-09-09T08:58:28;100796.84;;;25.77;56.92
21109;BME280;10712;52.944;9.098;2022-09-09T09:04:11;100800.34;;;25.85;56.91
21109;BME280;10712;52.944;9.098;2022-09-09T09:10:38;100785.94;;;25.92;57.20
21109;BME280;10712;52.944;9.098;2022-09-09T09:16:06;100801.06;;;25.94;57.12
21109;BME280;10712;52.944;9.098;2022-09-09T09:18:35;100806.34;;;25.96;56.71
21109;BME280;10712;52.944;9.098;2022-09-09T09:21:17;100809.94;;;25.96;56.44
21109;BME280;10712;52.944;9.098;2022-09-09T09:23:59;100807.38;;;25.95;56.18
21109;BME280;10712;52.944;9.098;2022-09-09T09:26:34;100801.16;;;26.01;56.16
21109;BME280;10712;52.944;9.098;2022-09-09T09:29:12;100792.88;;;25.94;56.11
21109;BME280;10712;52.944;9.098;2022-09-09T09:31:45;100799.28;;;25.86;56.32
21109;BME280;10712;52.944;9.098;2022-09-09T09:34:14;100797.81;;;25.99;55.98
21109;BME280;10712;52.944;9.098;2022-09-09T09:37:01;100794.31;;;26.05;55.67
21109;BME280;10712;52.944;9.098;2022-09-09T09:39:33;100801.09;;;26.09;55.53
21109;BME280;10712;52.944;9.098;2022-09-09T09:42:13;100799.69;;;26.13;55.55
21109;BME280;10712;52.944;9.098;2022-09-09T09:44:41;100796.56;;;26.16;55.43
21109;BME280;10712;52.944;9.098;2022-09-09T09:47:22;100803.25;;;26.28;55.06
21109;BME280;10712;52.944;9.098;2022-09-09T09:50:19;100799.28;;;26.45;54.81
21109;BME280;10712;52.944;9.098;2022-09-09T09:52:59;100786.91;;;26.64;54.29
21109;BME280;10712;52.944;9.098;2022-09-09T09:55:31;100790.38;;;26.73;54.26
21109;BME280;10712;52.944;9.098;2022-09-09T09:58:14;100798.75;;;26.71;54.15
21109;BME280;10712;52.944;9.098;2022-09-09T10:00:52;100796.63;;;26.66;54.09
21109;BME280;10712;52.944;9.098;2022-09-09T10:03:31;100794.94;;;26.51;54.17
21109;BME280;10712;52.944;9.098;2022-09-09T10:05:58;100793.38;;;26.78;53.36
21109;BME280;10712;52.944;9.098;2022-09-09T10:08:28;100794.69;;;26.82;53.04
21109;BME280;10712;52.944;9.098;2022-09-09T10:16:45;100796.94;;;27.14;52.38
21109;BME280;10712;52.944;9.098;2022-09-09T10:19:30;100792.84;;;27.03;52.08
21109;BME280;10712;52.944;9.098;2022-09-09T10:24:39;100799.00;;;26.91;51.73
21109;BME280;10712;52.944;9.098;2022-09-09T10:27:51;100803.53;;;26.84;51.98
21109;BME280;10712;52.944;9.098;2022-09-09T10:31:10;100803.66;;;26.76;51.66
21109;BME280;10712;52.944;9.098;2022-09-09T10:34:06;100797.34;;;26.75;52.08
21109;BME280;10712;52.944;9.098;2022-09-09T10:36:46;100781.13;;;26.74;51.83
21109;BME280;10712;52.944;9.098;2022-09-09T10:39:37;100781.25;;;26.65;52.25
21109;BME280;10712;52.944;9.098;2022-09-09T10:42:12;100776.44;;;26.67;51.98
21109;BME280;10712;52.944;9.098;2022-09-09T10:56:54;100792.50;;;26.77;52.12
21109;BME280;10712;52.944;9.098;2022-09-09T10:59:30;100789.59;;;26.79;52.07
21109;BME280;10712;52.944;9.098;2022-09-09T11:02:30;100779.44;;;26.73;52.09
21109;BME280;10712;52.944;9.098;2022-09-09T11:05:20;100783.88;;;26.74;52.05
21109;BME280;10712;52.944;9.098;2022-09-09T11:07:56;100779.28;;;26.59;52.40
21109;BME280;10712;52.944;9.098;2022-09-09T11:10:46;100781.06;;;26.67;52.32
21109;BME280;10712;52.944;9.098;2022-09-09T11:13:55;100782.69;;;26.61;52.52
21109;BME280;10712;52.944;9.098;2022-09-09T11:16:51;100784.75;;;26.59;52.78
21109;BME280;10712;52.944;9.098;2022-09-09T11:22:31;100788.53;;;26.58;53.19
21109;BME280;10712;52.944;9.098;2022-09-09T11:25:34;100790.31;;;26.51;54.09
21109;BME280;10712;52.944;9.098;2022-09-09T11:28:42;100787.22;;;26.54;54.49
21109;BME280;10712;52.944;9.098;2022-09-09T11:31:49;100785.91;;;26.50;55.49
21109;BME280;10712;52.944;9.098;2022-09-09T11:34:50;100790.25;;;26.45;55.88
21109;BME280;10712;52.944;9.098;2022-09-09T11:40:26;100779.59;;;26.35;56.98
21109;BME280;10712;52.944;9.098;2022-09-09T11:43:10;100794.59;;;26.39;56.71
21109;BME280;10712;52.944;9.098;2022-09-09T11:45:41;100789.97;;;26.40;56.93
21109;BME280;10712;52.944;9.098;2022-09-09T11:48:33;100785.66;;;26.31;57.05
21109;BME280;10712;52.944;9.098;2022-09-09T11:53:56;100794.69;;;26.31;57.26
21109;BME280;10712;52.944;9.098;2022-09-09T11:59:28;100826.59;;;26.16;56.99
21109;BME280;10712;52.944;9.098;2022-09-09T12:02:11;100834.47;;;25.81;56.67
21109;BME280;10712;52.944;9.098;2022-09-09T12:04:43;100840.13;;;25.80;56.39
21109;BME280;10712;52.944;9.098;2022-09-09T12:09:59;100849.81;;;25.68;56.78
21109;BME280;10712;52.944;9.098;2022-09-09T12:12:30;100841.44;;;25.46;57.51
21109;BME280;10712;52.944;9.098;2022-09-09T12:17:47;100828.75;;;25.54;57.21
21109;BME280;10712;52.944;9.098;2022-09-09T12:20:22;100827.00;;;25.61;57.24
21109;BME280;10712;52.944;9.098;2022-09-09T12:28:50;100816.69;;;25.48;57.81
21109;BME280;10712;52.944;9.098;2022-09-09T12:34:40;100828.34;;;25.42;58.13
21109;BME280;10712;52.944;9.098;2022-09-09T12:37:17;100833.81;;;25.42;58.21
21109;BME280;10712;52.944;9.098;2022-09-09T12:39:55;100835.84;;;25.40;58.25
21109;BME280;10712;52.944;9.098;2022-09-09T12:42:22;100832.78;;;25.43;58.10
21109;BME280;10712;52.944;9.098;2022-09-09T12:44:53;100835.13;;;25.46;58.07
21109;BME280;10712;52.944;9.098;2022-09-09T12:47:24;100832.22;;;25.47;58.17
21109;BME280;10712;52.944;9.098;2022-09-09T12:49:52;100823.84;;;25.49;58.10
21109;BME280;10712;52.944;9.098;2022-09-09T12:52:29;100815.75;;;25.41;57.89
21109;BME280;10712;52.944;9.098;2022-09-09T12:54:58;100827.50;;;25.41;58.04
21109;BME280;10712;52.944;9.098;2022-09-09T12:57:26;100819.88;;;25.37;57.94
21109;BME280;10712;52.944;9.098;2022-09-09T13:00:13;100827.00;;;25.38;57.72
21109;BME280;10712;52.944;9.098;2022-09-09T13:02:52;100813.75;;;25.35;57.65
21109;BME280;10712;52.944;9.098;2022-09-09T13:05:27;100806.13;;;25.45;57.67
21109;BME280;10712;52.944;9.098;2022-09-09T13:08:05;100787.38;;;25.50;57.96
21109;BME280;10712;52.944;9.098;2022-09-09T13:10:39;100780.81;;;25.59;57.77
21109;BME280;10712;52.944;9.098;2022-09-09T13:13:15;100787.31;;;25.73;57.59
21109;BME280;10712;52.944;9.098;2022-09-09T13:15:59;100790.81;;;25.81;57.86
21109;BME280;10712;52.944;9.098;2022-09-09T13:18:36;100784.50;;;25.96;57.58
21109;BME280;10712;52.944;9.098;2022-09-09T13:21:05;100783.22;;;26.06;57.63
21109;BME280;10712;52.944;9.098;2022-09-09T13:23:34;100780.34;;;26.14;57.44
21109;BME280;10712;52.944;9.098;2022-09-09T13:26:18;100787.81;;;26.20;57.82
21109;BME280;10712;52.944;9.098;2022-09-09T13:28:47;100785.72;;;26.22;57.93
21109;BME280;10712;52.944;9.098;2022-09-09T13:31:28;100790.16;;;26.23;57.68
21109;BME280;10712;52.944;9.098;2022-09-09T13:33:55;100789.81;;;26.26;57.70
21109;BME280;10712;52.944;9.098;2022-09-09T13:36:33;100783.50;;;26.26;57.57
21109;BME280;10712;52.944;9.098;2022-09-09T13:39:03;100786.88;;;26.28;57.36
21109;BME280;10712;52.944;9.098;2022-09-09T13:41:35;100798.47;;;26.30;57.60
21109;BME280;10712;52.944;9.098;2022-09-09T13:44:03;100797.81;;;26.28;57.48
21109;BME280;10712;52.944;9.098;2022-09-09T13:46:41;100789.16;;;26.24;57.31
21109;BME280;10712;52.944;9.098;2022-09-09T13:51:39;100781.41;;;26.28;57.33
21109;BME280;10712;52.944;9.098;2022-09-09T13:54:06;100789.41;;;26.30;57.33
21109;BME280;10712;52.944;9.098;2022-09-09T13:56:36;100780.06;;;26.24;57.42
21109;BME280;10712;52.944;9.098;2022-09-09T13:59:08;100784.69;;;26.23;57.23
21109;BME280;10712;52.944;9.098;2022-09-09T14:01:35;100794.44;;;26.26;57.16
21109;BME280;10712;52.944;9.098;2022-09-09T14:04:01;100805.34;;;26.26;56.98
21109;BME280;10712;52.944;9.098;2022-09-09T14:06:27;100796.81;;;26.21;56.87
21109;BME280;10712;52.944;9.098;2022-09-09T14:08:55;100798.91;;;26.19;57.01
21109;BME280;10712;52.944;9.098;2022-09-09T14:11:21;100810.69;;;26.19;56.97
21109;BME280;10712;52.944;9.098;2022-09-09T14:13:48;100808.50;;;26.15;56.87
21109;BME280;10712;52.944;9.098;2022-09-09T14:16:19;100805.50;;;26.10;56.84
21109;BME280;10712;52.944;9.098;2022-09-09T14:18:45;100814.72;;;26.09;56.86
21109;BME280;10712;52.944;9.098;2022-09-09T14:21:12;100817.38;;;26.02;57.12
21109;BME280;10712;52.944;9.098;2022-09-09T14:23:38;100817.09;;;25.97;57.06
21109;BME280;10712;52.944;9.098;2022-09-09T14:26:06;100799.00;;;25.96;57.08
21109;BME280;10712;52.944;9.098;2022-09-09T14:28:32;100790.81;;;25.96;57.38
21109;BME280;10712;52.944;9.098;2022-09-09T14:31:03;100792.69;;;25.96;57.28
21109;BME280;10712;52.944;9.098;2022-09-09T14:33:30;100800.44;;;26.07;57.33
21109;BME280;10712;52.944;9.098;2022-09-09T14:36:01;100810.31;;;25.93;57.69
21109;BME280;10712;52.944;9.098;2022-09-09T14:38:37;100810.09;;;25.80;57.89
21109;BME280;10712;52.944;9.098;2022-09-09T14:41:10;100810.66;;;25.75;57.98
21109;BME280;10712;52.944;9.098;2022-09-09T14:43:40;100791.94;;;25.58;58.40
21109;BME280;10712;52.944;9.098;2022-09-09T14:46:12;100786.63;;;25.56;58.07
21109;BME280;10712;52.944;9.098;2022-09-09T14:48:38;100788.69;;;25.54;58.15
21109;BME280;10712;52.944;9.098;2022-09-09T14:51:11;100767.00;;;25.38;57.64
21109;BME280;10712;52.944;9.098;2022-09-09T14:53:50;100770.69;;;25.07;57.00
21109;BME280;10712;52.944;9.098;2022-09-09T14:56:19;100787.50;;;25.11;56.80
21109;BME280;10712;52.944;9.098;2022-09-09T14:58:46;100826.91;;;25.08;57.06
21109;BME280;10712;52.944;9.098;2022-09-09T15:01:16;100838.09;;;24.91;56.73
21109;BME280;10712;52.944;9.098;2022-09-09T15:03:49;100835.50;;;24.97;56.41
21109;BME280;10712;52.944;9.098;2022-09-09T15:06:15;100847.13;;;24.91;55.99
21109;BME280;10712;52.944;9.098;2022-09-09T15:12:47;100831.28;;;24.56;56.40